CheckWX is a tool to help pilots better visualize weather data.  It is not intended as a substitute for an official pre-flight weather briefing.

11:12:27 UTC

CWFD METAR
Cape Dyer Airport
Canada
Current

1 hour ago

CWFD 151000Z AUTO 21009KT ////SM //// SCT100 OVC130 M01/M10 A2996
Observed
Oct-15 @ 10:00 UTC
Wind
  • 210° at 9 KTS
Visibility
Cloud Levels
  • Scattered at 10,000' AGL
  • Overcast at 13,000' AGL
Temperature
-1°C / 30°F
Dewpoint
-10°C / 14°F
Humidity
51%
Altimeter
29.96" Hg
Pressure
1014.52 hPa
Previous

2 hours ago

CWFD 150900Z AUTO 22007KT ////SM //// BKN120 OVC140 M00/M10 A2997
Observed
Oct-15 @ 09:00 UTC
Wind
  • 220° at 7 KTS
Visibility
Cloud Levels
  • Broken at 12,000' AGL
  • Overcast at 14,000' AGL
Temperature
C / 32°F
Dewpoint
-10°C / 14°F
Humidity
47%
Altimeter
29.97" Hg
Pressure
1014.92 hPa
Previous

3 hours ago

CWFD 150800Z AUTO 21008KT ////SM //// OVC075 M01/M10 A2997
Observed
Oct-15 @ 08:00 UTC
Wind
  • 210° at 8 KTS
Visibility
Cloud Levels
  • Overcast at 7,500' AGL
Temperature
-1°C / 30°F
Dewpoint
-10°C / 14°F
Humidity
51%
Altimeter
29.97" Hg
Pressure
1014.92 hPa